sensor_id;sensor_type;location;lat;lon;timestamp;P1;durP1;ratioP1;P2;durP2;ratioP2
13329;SDS011;6734;48.638;8.896;2022-11-15T00:00:49;7.07;;;4.30;;
13329;SDS011;6734;48.638;8.896;2022-11-15T00:03:16;4.87;;;4.17;;
13329;SDS011;6734;48.638;8.896;2022-11-15T00:05:42;6.97;;;4.37;;
13329;SDS011;6734;48.638;8.896;2022-11-15T00:08:08;5.17;;;3.87;;
13329;SDS011;6734;48.638;8.896;2022-11-15T00:10:34;6.80;;;3.93;;
13329;SDS011;6734;48.638;8.896;2022-11-15T00:13:03;7.00;;;3.70;;
13329;SDS011;6734;48.638;8.896;2022-11-15T00:15:30;4.97;;;3.80;;
13329;SDS011;6734;48.638;8.896;2022-11-15T00:17:55;5.47;;;3.47;;
13329;SDS011;6734;48.638;8.896;2022-11-15T00:20:21;4.93;;;3.57;;
13329;SDS011;6734;48.638;8.896;2022-11-15T00:22:47;5.80;;;4.17;;
13329;SDS011;6734;48.638;8.896;2022-11-15T00:25:13;5.17;;;4.10;;
13329;SDS011;6734;48.638;8.896;2022-11-15T00:27:39;5.40;;;3.87;;
13329;SDS011;6734;48.638;8.896;2022-11-15T00:30:05;4.77;;;4.13;;
13329;SDS011;6734;48.638;8.896;2022-11-15T00:32:31;6.27;;;3.77;;
13329;SDS011;6734;48.638;8.896;2022-11-15T00:34:57;7.30;;;4.13;;
13329;SDS011;6734;48.638;8.896;2022-11-15T00:37:23;4.50;;;3.70;;
13329;SDS011;6734;48.638;8.896;2022-11-15T00:39:49;7.07;;;3.87;;
13329;SDS011;6734;48.638;8.896;2022-11-15T00:42:15;4.37;;;3.20;;
13329;SDS011;6734;48.638;8.896;2022-11-15T00:44:41;6.00;;;3.53;;
13329;SDS011;6734;48.638;8.896;2022-11-15T00:47:07;5.13;;;3.43;;
13329;SDS011;6734;48.638;8.896;2022-11-15T00:49:33;6.63;;;3.63;;
13329;SDS011;6734;48.638;8.896;2022-11-15T00:51:59;6.60;;;4.30;;
13329;SDS011;6734;48.638;8.896;2022-11-15T00:54:25;6.27;;;3.93;;
13329;SDS011;6734;48.638;8.896;2022-11-15T00:56:51;5.23;;;4.63;;
13329;SDS011;6734;48.638;8.896;2022-11-15T00:59:17;6.63;;;4.13;;
13329;SDS011;6734;48.638;8.896;2022-11-15T01:01:43;6.37;;;4.17;;
13329;SDS011;6734;48.638;8.896;2022-11-15T01:04:09;7.40;;;3.93;;
13329;SDS011;6734;48.638;8.896;2022-11-15T01:06:34;5.60;;;4.50;;
13329;SDS011;6734;48.638;8.896;2022-11-15T01:09:00;5.87;;;4.33;;
13329;SDS011;6734;48.638;8.896;2022-11-15T01:11:26;8.77;;;5.10;;
13329;SDS011;6734;48.638;8.896;2022-11-15T01:13:52;6.33;;;4.00;;
13329;SDS011;6734;48.638;8.896;2022-11-15T01:16:20;6.53;;;5.07;;
13329;SDS011;6734;48.638;8.896;2022-11-15T01:18:46;7.30;;;4.80;;
13329;SDS011;6734;48.638;8.896;2022-11-15T01:21:14;6.93;;;4.50;;
13329;SDS011;6734;48.638;8.896;2022-11-15T01:23:40;5.10;;;4.10;;
13329;SDS011;6734;48.638;8.896;2022-11-15T01:26:07;6.33;;;4.20;;
13329;SDS011;6734;48.638;8.896;2022-11-15T01:28:33;5.93;;;4.60;;
13329;SDS011;6734;48.638;8.896;2022-11-15T01:31:02;7.17;;;4.43;;
13329;SDS011;6734;48.638;8.896;2022-11-15T01:33:28;7.30;;;4.57;;
13329;SDS011;6734;48.638;8.896;2022-11-15T01:35:54;5.20;;;4.00;;
13329;SDS011;6734;48.638;8.896;2022-11-15T01:38:20;6.07;;;4.20;;
13329;SDS011;6734;48.638;8.896;2022-11-15T01:40:46;5.83;;;4.80;;
13329;SDS011;6734;48.638;8.896;2022-11-15T01:43:46;5.47;;;4.50;;
13329;SDS011;6734;48.638;8.896;2022-11-15T01:46:21;6.93;;;4.37;;
13329;SDS011;6734;48.638;8.896;2022-11-15T01:48:48;7.83;;;4.57;;
13329;SDS011;6734;48.638;8.896;2022-11-15T01:51:17;5.63;;;4.37;;
13329;SDS011;6734;48.638;8.896;2022-11-15T01:53:44;8.60;;;4.60;;
13329;SDS011;6734;48.638;8.896;2022-11-15T01:56:12;7.83;;;5.63;;
13329;SDS011;6734;48.638;8.896;2022-11-15T01:58:39;8.70;;;5.63;;
13329;SDS011;6734;48.638;8.896;2022-11-15T02:01:06;7.53;;;4.60;;
13329;SDS011;6734;48.638;8.896;2022-11-15T02:03:36;5.90;;;4.23;;
13329;SDS011;6734;48.638;8.896;2022-11-15T02:06:05;8.27;;;5.00;;
13329;SDS011;6734;48.638;8.896;2022-11-15T02:08:31;6.60;;;4.27;;
13329;SDS011;6734;48.638;8.896;2022-11-15T02:10:57;7.10;;;4.23;;
13329;SDS011;6734;48.638;8.896;2022-11-15T02:13:23;6.90;;;4.50;;
13329;SDS011;6734;48.638;8.896;2022-11-15T02:15:53;5.63;;;4.17;;
13329;SDS011;6734;48.638;8.896;2022-11-15T02:18:26;6.37;;;4.40;;
13329;SDS011;6734;48.638;8.896;2022-11-15T02:21:11;5.30;;;4.00;;
13329;SDS011;6734;48.638;8.896;2022-11-15T02:28:41;6.03;;;4.23;;
13329;SDS011;6734;48.638;8.896;2022-11-15T02:42:02;5.63;;;4.00;;
13329;SDS011;6734;48.638;8.896;2022-11-15T02:44:52;7.77;;;3.77;;
13329;SDS011;6734;48.638;8.896;2022-11-15T02:47:22;5.73;;;4.10;;
13329;SDS011;6734;48.638;8.896;2022-11-15T02:49:50;6.70;;;3.87;;
13329;SDS011;6734;48.638;8.896;2022-11-15T02:52:17;5.83;;;4.00;;
13329;SDS011;6734;48.638;8.896;2022-11-15T02:57:21;4.93;;;3.57;;
13329;SDS011;6734;48.638;8.896;2022-11-15T03:05:04;5.27;;;3.17;;
13329;SDS011;6734;48.638;8.896;2022-11-15T03:10:09;6.97;;;4.00;;
13329;SDS011;6734;48.638;8.896;2022-11-15T03:15:10;5.87;;;3.77;;
13329;SDS011;6734;48.638;8.896;2022-11-15T03:17:39;5.37;;;4.20;;
13329;SDS011;6734;48.638;8.896;2022-11-15T03:20:06;6.33;;;4.23;;
13329;SDS011;6734;48.638;8.896;2022-11-15T03:22:40;5.13;;;4.07;;
13329;SDS011;6734;48.638;8.896;2022-11-15T03:25:09;5.80;;;4.30;;
13329;SDS011;6734;48.638;8.896;2022-11-15T03:27:37;7.27;;;4.03;;
13329;SDS011;6734;48.638;8.896;2022-11-15T03:30:06;6.00;;;4.00;;
13329;SDS011;6734;48.638;8.896;2022-11-15T03:32:54;5.80;;;3.57;;
13329;SDS011;6734;48.638;8.896;2022-11-15T03:35:22;4.70;;;3.93;;
13329;SDS011;6734;48.638;8.896;2022-11-15T03:40:14;6.40;;;3.97;;
13329;SDS011;6734;48.638;8.896;2022-11-15T03:42:46;4.37;;;3.97;;
13329;SDS011;6734;48.638;8.896;2022-11-15T03:45:58;5.90;;;4.30;;
13329;SDS011;6734;48.638;8.896;2022-11-15T03:48:18;5.87;;;4.30;;
13329;SDS011;6734;48.638;8.896;2022-11-15T03:50:47;5.60;;;3.80;;
13329;SDS011;6734;48.638;8.896;2022-11-15T03:53:13;5.13;;;3.30;;
13329;SDS011;6734;48.638;8.896;2022-11-15T03:55:39;6.43;;;3.80;;
13329;SDS011;6734;48.638;8.896;2022-11-15T03:58:05;5.37;;;3.47;;
13329;SDS011;6734;48.638;8.896;2022-11-15T04:00:31;5.30;;;3.47;;
13329;SDS011;6734;48.638;8.896;2022-11-15T04:02:57;4.63;;;3.50;;
13329;SDS011;6734;48.638;8.896;2022-11-15T04:05:23;5.00;;;3.80;;
13329;SDS011;6734;48.638;8.896;2022-11-15T04:07:49;5.40;;;3.63;;
13329;SDS011;6734;48.638;8.896;2022-11-15T04:10:16;5.50;;;3.80;;
13329;SDS011;6734;48.638;8.896;2022-11-15T04:12:43;4.00;;;3.43;;
13329;SDS011;6734;48.638;8.896;2022-11-15T04:15:12;4.93;;;3.60;;
13329;SDS011;6734;48.638;8.896;2022-11-15T04:17:42;5.70;;;3.57;;
13329;SDS011;6734;48.638;8.896;2022-11-15T04:22:56;6.00;;;3.70;;
13329;SDS011;6734;48.638;8.896;2022-11-15T04:25:41;4.67;;;3.80;;
13329;SDS011;6734;48.638;8.896;2022-11-15T04:28:07;6.93;;;3.67;;
13329;SDS011;6734;48.638;8.896;2022-11-15T04:30:33;6.20;;;4.53;;
13329;SDS011;6734;48.638;8.896;2022-11-15T04:32:59;5.57;;;3.90;;
13329;SDS011;6734;48.638;8.896;2022-11-15T04:35:26;6.10;;;4.33;;
13329;SDS011;6734;48.638;8.896;2022-11-15T04:37:52;5.87;;;4.00;;
13329;SDS011;6734;48.638;8.896;2022-11-15T04:40:17;5.33;;;3.97;;
13329;SDS011;6734;48.638;8.896;2022-11-15T04:42:43;5.50;;;4.00;;
13329;SDS011;6734;48.638;8.896;2022-11-15T04:45:09;7.07;;;4.50;;
13329;SDS011;6734;48.638;8.896;2022-11-15T04:47:35;5.53;;;4.20;;
13329;SDS011;6734;48.638;8.896;2022-11-15T04:50:01;5.97;;;3.97;;
13329;SDS011;6734;48.638;8.896;2022-11-15T04:52:28;5.30;;;3.73;;
13329;SDS011;6734;48.638;8.896;2022-11-15T04:54:54;5.60;;;3.87;;
13329;SDS011;6734;48.638;8.896;2022-11-15T04:57:20;5.37;;;4.00;;
13329;SDS011;6734;48.638;8.896;2022-11-15T04:59:46;8.03;;;4.03;;
13329;SDS011;6734;48.638;8.896;2022-11-15T05:02:11;5.67;;;3.83;;
13329;SDS011;6734;48.638;8.896;2022-11-15T05:04:37;5.43;;;3.67;;
13329;SDS011;6734;48.638;8.896;2022-11-15T05:07:03;5.17;;;3.40;;
13329;SDS011;6734;48.638;8.896;2022-11-15T05:09:29;4.70;;;3.53;;
13329;SDS011;6734;48.638;8.896;2022-11-15T05:11:55;4.83;;;3.50;;
13329;SDS011;6734;48.638;8.896;2022-11-15T05:14:21;6.27;;;4.03;;
13329;SDS011;6734;48.638;8.896;2022-11-15T05:16:47;4.90;;;3.80;;
13329;SDS011;6734;48.638;8.896;2022-11-15T05:19:13;4.17;;;3.60;;
13329;SDS011;6734;48.638;8.896;2022-11-15T05:21:39;5.97;;;4.23;;
13329;SDS011;6734;48.638;8.896;2022-11-15T05:24:05;5.40;;;3.80;;
13329;SDS011;6734;48.638;8.896;2022-11-15T05:26:31;4.30;;;3.53;;
13329;SDS011;6734;48.638;8.896;2022-11-15T05:28:58;5.90;;;4.37;;
13329;SDS011;6734;48.638;8.896;2022-11-15T05:31:24;5.57;;;4.00;;
13329;SDS011;6734;48.638;8.896;2022-11-15T05:33:51;6.23;;;4.50;;
13329;SDS011;6734;48.638;8.896;2022-11-15T05:39:05;6.53;;;4.40;;
13329;SDS011;6734;48.638;8.896;2022-11-15T05:41:44;7.83;;;4.50;;
13329;SDS011;6734;48.638;8.896;2022-11-15T05:44:13;7.97;;;4.97;;
13329;SDS011;6734;48.638;8.896;2022-11-15T05:46:41;6.27;;;4.93;;
13329;SDS011;6734;48.638;8.896;2022-11-15T05:49:09;10.27;;;5.83;;
13329;SDS011;6734;48.638;8.896;2022-11-15T05:51:37;7.80;;;5.60;;
13329;SDS011;6734;48.638;8.896;2022-11-15T05:54:03;7.50;;;5.73;;
13329;SDS011;6734;48.638;8.896;2022-11-15T05:56:29;13.13;;;7.13;;
13329;SDS011;6734;48.638;8.896;2022-11-15T05:58:56;10.27;;;6.60;;
13329;SDS011;6734;48.638;8.896;2022-11-15T06:01:23;11.47;;;6.23;;
13329;SDS011;6734;48.638;8.896;2022-11-15T06:03:50;8.93;;;6.20;;
13329;SDS011;6734;48.638;8.896;2022-11-15T06:06:16;8.80;;;6.83;;
13329;SDS011;6734;48.638;8.896;2022-11-15T06:08:42;9.20;;;6.17;;
13329;SDS011;6734;48.638;8.896;2022-11-15T06:11:08;9.70;;;6.80;;
13329;SDS011;6734;48.638;8.896;2022-11-15T06:13:34;9.80;;;6.43;;
13329;SDS011;6734;48.638;8.896;2022-11-15T06:16:00;11.80;;;6.87;;
13329;SDS011;6734;48.638;8.896;2022-11-15T06:18:26;9.53;;;5.90;;
13329;SDS011;6734;48.638;8.896;2022-11-15T06:20:52;11.60;;;7.63;;
13329;SDS011;6734;48.638;8.896;2022-11-15T06:23:18;12.37;;;9.17;;
13329;SDS011;6734;48.638;8.896;2022-11-15T06:25:44;16.00;;;9.93;;
13329;SDS011;6734;48.638;8.896;2022-11-15T06:28:10;21.53;;;12.50;;
13329;SDS011;6734;48.638;8.896;2022-11-15T06:30:36;15.20;;;8.87;;
13329;SDS011;6734;48.638;8.896;2022-11-15T06:33:03;13.90;;;7.70;;
13329;SDS011;6734;48.638;8.896;2022-11-15T06:35:30;10.20;;;6.77;;
13329;SDS011;6734;48.638;8.896;2022-11-15T06:38:05;9.57;;;6.87;;
13329;SDS011;6734;48.638;8.896;2022-11-15T06:40:32;8.57;;;5.70;;
13329;SDS011;6734;48.638;8.896;2022-11-15T06:42:59;7.90;;;5.97;;
13329;SDS011;6734;48.638;8.896;2022-11-15T06:45:24;10.17;;;6.50;;
13329;SDS011;6734;48.638;8.896;2022-11-15T06:47:50;10.13;;;6.33;;
13329;SDS011;6734;48.638;8.896;2022-11-15T06:50:16;9.23;;;6.10;;
13329;SDS011;6734;48.638;8.896;2022-11-15T06:52:42;8.60;;;6.47;;
13329;SDS011;6734;48.638;8.896;2022-11-15T06:55:08;9.83;;;6.53;;
13329;SDS011;6734;48.638;8.896;2022-11-15T06:57:34;9.60;;;6.33;;
13329;SDS011;6734;48.638;8.896;2022-11-15T07:00:00;9.37;;;6.33;;
13329;SDS011;6734;48.638;8.896;2022-11-15T07:02:26;8.63;;;6.10;;
13329;SDS011;6734;48.638;8.896;2022-11-15T07:04:52;10.27;;;6.37;;
13329;SDS011;6734;48.638;8.896;2022-11-15T07:07:17;10.60;;;7.17;;
13329;SDS011;6734;48.638;8.896;2022-11-15T07:09:43;9.80;;;6.70;;
13329;SDS011;6734;48.638;8.896;2022-11-15T07:12:09;10.53;;;7.23;;
13329;SDS011;6734;48.638;8.896;2022-11-15T07:14:34;8.87;;;6.33;;
13329;SDS011;6734;48.638;8.896;2022-11-15T07:17:02;9.90;;;6.93;;
13329;SDS011;6734;48.638;8.896;2022-11-15T07:19:28;10.90;;;6.23;;
13329;SDS011;6734;48.638;8.896;2022-11-15T07:21:54;10.97;;;6.70;;
13329;SDS011;6734;48.638;8.896;2022-11-15T07:24:20;15.07;;;7.93;;
13329;SDS011;6734;48.638;8.896;2022-11-15T07:26:46;11.70;;;8.87;;
13329;SDS011;6734;48.638;8.896;2022-11-15T07:29:11;8.73;;;6.97;;
13329;SDS011;6734;48.638;8.896;2022-11-15T07:31:37;13.87;;;8.03;;
13329;SDS011;6734;48.638;8.896;2022-11-15T07:34:03;12.67;;;9.10;;
13329;SDS011;6734;48.638;8.896;2022-11-15T07:36:29;13.33;;;8.80;;
13329;SDS011;6734;48.638;8.896;2022-11-15T07:38:55;9.60;;;7.13;;
13329;SDS011;6734;48.638;8.896;2022-11-15T07:41:21;11.13;;;7.27;;
13329;SDS011;6734;48.638;8.896;2022-11-15T07:43:47;8.20;;;5.60;;
13329;SDS011;6734;48.638;8.896;2022-11-15T07:46:15;7.77;;;5.77;;
13329;SDS011;6734;48.638;8.896;2022-11-15T07:48:41;9.43;;;7.30;;
13329;SDS011;6734;48.638;8.896;2022-11-15T07:51:06;6.87;;;6.10;;
13329;SDS011;6734;48.638;8.896;2022-11-15T07:53:32;7.57;;;5.33;;
13329;SDS011;6734;48.638;8.896;2022-11-15T07:55:58;7.33;;;5.73;;
13329;SDS011;6734;48.638;8.896;2022-11-15T07:58:23;7.83;;;4.93;;
13329;SDS011;6734;48.638;8.896;2022-11-15T08:00:49;7.53;;;4.90;;
13329;SDS011;6734;48.638;8.896;2022-11-15T08:03:15;5.63;;;4.23;;
13329;SDS011;6734;48.638;8.896;2022-11-15T08:05:42;10.00;;;5.47;;
13329;SDS011;6734;48.638;8.896;2022-11-15T08:08:09;6.17;;;4.60;;
13329;SDS011;6734;48.638;8.896;2022-11-15T08:10:35;8.13;;;4.67;;
13329;SDS011;6734;48.638;8.896;2022-11-15T08:15:28;7.73;;;4.70;;
13329;SDS011;6734;48.638;8.896;2022-11-15T08:17:57;6.97;;;4.30;;
13329;SDS011;6734;48.638;8.896;2022-11-15T08:20:24;7.03;;;4.07;;
13329;SDS011;6734;48.638;8.896;2022-11-15T08:22:51;7.47;;;3.70;;
13329;SDS011;6734;48.638;8.896;2022-11-15T08:25:16;5.37;;;3.90;;
13329;SDS011;6734;48.638;8.896;2022-11-15T08:27:42;5.57;;;4.03;;
13329;SDS011;6734;48.638;8.896;2022-11-15T08:30:09;8.90;;;4.00;;
13329;SDS011;6734;48.638;8.896;2022-11-15T08:32:35;5.47;;;4.13;;
13329;SDS011;6734;48.638;8.896;2022-11-15T08:35:00;4.20;;;3.70;;
13329;SDS011;6734;48.638;8.896;2022-11-15T08:37:26;6.40;;;4.00;;
13329;SDS011;6734;48.638;8.896;2022-11-15T08:39:52;5.73;;;3.63;;
13329;SDS011;6734;48.638;8.896;2022-11-15T08:42:17;4.20;;;3.47;;
13329;SDS011;6734;48.638;8.896;2022-11-15T08:44:43;5.70;;;4.17;;
13329;SDS011;6734;48.638;8.896;2022-11-15T08:47:10;4.70;;;3.53;;
13329;SDS011;6734;48.638;8.896;2022-11-15T08:49:37;5.97;;;3.83;;
13329;SDS011;6734;48.638;8.896;2022-11-15T08:52:03;6.07;;;4.50;;
13329;SDS011;6734;48.638;8.896;2022-11-15T08:54:29;6.97;;;4.27;;
13329;SDS011;6734;48.638;8.896;2022-11-15T08:56:54;7.13;;;4.50;;
13329;SDS011;6734;48.638;8.896;2022-11-15T08:59:20;5.77;;;4.47;;
13329;SDS011;6734;48.638;8.896;2022-11-15T09:01:46;6.93;;;3.87;;
13329;SDS011;6734;48.638;8.896;2022-11-15T09:04:12;7.00;;;4.07;;
13329;SDS011;6734;48.638;8.896;2022-11-15T09:06:38;6.27;;;4.47;;
13329;SDS011;6734;48.638;8.896;2022-11-15T09:09:04;6.73;;;4.43;;
13329;SDS011;6734;48.638;8.896;2022-11-15T09:11:29;6.10;;;3.83;;
13329;SDS011;6734;48.638;8.896;2022-11-15T09:13:55;4.93;;;3.90;;
13329;SDS011;6734;48.638;8.896;2022-11-15T09:16:21;5.50;;;4.03;;
13329;SDS011;6734;48.638;8.896;2022-11-15T09:18:47;5.07;;;3.70;;
13329;SDS011;6734;48.638;8.896;2022-11-15T09:21:13;5.53;;;3.77;;
13329;SDS011;6734;48.638;8.896;2022-11-15T09:23:38;4.47;;;3.90;;
13329;SDS011;6734;48.638;8.896;2022-11-15T09:26:05;5.27;;;3.87;;
13329;SDS011;6734;48.638;8.896;2022-11-15T09:28:31;6.30;;;3.60;;
13329;SDS011;6734;48.638;8.896;2022-11-15T09:30:58;4.83;;;3.37;;
13329;SDS011;6734;48.638;8.896;2022-11-15T09:33:24;6.43;;;3.67;;
13329;SDS011;6734;48.638;8.896;2022-11-15T09:35:51;8.23;;;3.90;;
13329;SDS011;6734;48.638;8.896;2022-11-15T09:38:17;5.33;;;3.80;;
13329;SDS011;6734;48.638;8.896;2022-11-15T09:40:43;5.10;;;3.60;;
13329;SDS011;6734;48.638;8.896;2022-11-15T09:46:08;5.17;;;3.80;;
13329;SDS011;6734;48.638;8.896;2022-11-15T09:48:44;7.13;;;4.30;;
13329;SDS011;6734;48.638;8.896;2022-11-15T09:51:14;8.87;;;4.70;;
13329;SDS011;6734;48.638;8.896;2022-11-15T09:53:47;6.00;;;4.57;;
13329;SDS011;6734;48.638;8.896;2022-11-15T09:56:16;6.17;;;4.27;;
13329;SDS011;6734;48.638;8.896;2022-11-15T10:01:16;5.97;;;3.67;;
13329;SDS011;6734;48.638;8.896;2022-11-15T10:03:44;5.57;;;3.73;;
13329;SDS011;6734;48.638;8.896;2022-11-15T10:06:21;7.00;;;3.13;;
13329;SDS011;6734;48.638;8.896;2022-11-15T10:09:04;4.93;;;3.10;;
13329;SDS011;6734;48.638;8.896;2022-11-15T10:11:37;4.33;;;3.00;;
13329;SDS011;6734;48.638;8.896;2022-11-15T10:14:13;3.67;;;3.10;;
13329;SDS011;6734;48.638;8.896;2022-11-15T10:19:42;5.60;;;3.27;;
13329;SDS011;6734;48.638;8.896;2022-11-15T10:25:09;4.77;;;4.03;;
13329;SDS011;6734;48.638;8.896;2022-11-15T10:27:37;3.37;;;2.93;;
13329;SDS011;6734;48.638;8.896;2022-11-15T10:30:10;5.27;;;3.50;;
13329;SDS011;6734;48.638;8.896;2022-11-15T10:32:36;4.53;;;2.67;;
13329;SDS011;6734;48.638;8.896;2022-11-15T10:35:15;6.53;;;3.27;;
13329;SDS011;6734;48.638;8.896;2022-11-15T10:37:52;5.90;;;3.00;;
13329;SDS011;6734;48.638;8.896;2022-11-15T10:40:31;4.57;;;3.10;;
13329;SDS011;6734;48.638;8.896;2022-11-15T10:43:04;5.53;;;2.87;;
13329;SDS011;6734;48.638;8.896;2022-11-15T10:45:41;4.47;;;3.07;;
13329;SDS011;6734;48.638;8.896;2022-11-15T10:50:40;4.60;;;3.10;;
13329;SDS011;6734;48.638;8.896;2022-11-15T10:55:52;6.03;;;3.63;;
13329;SDS011;6734;48.638;8.896;2022-11-15T10:58:38;4.70;;;3.83;;
13329;SDS011;6734;48.638;8.896;2022-11-15T11:01:17;5.80;;;4.20;;
13329;SDS011;6734;48.638;8.896;2022-11-15T11:03:45;6.13;;;4.07;;
13329;SDS011;6734;48.638;8.896;2022-11-15T11:06:24;5.33;;;4.60;;
13329;SDS011;6734;48.638;8.896;2022-11-15T11:09:00;5.13;;;4.43;;
13329;SDS011;6734;48.638;8.896;2022-11-15T11:11:43;5.10;;;4.43;;
13329;SDS011;6734;48.638;8.896;2022-11-15T11:14:21;5.97;;;3.97;;
13329;SDS011;6734;48.638;8.896;2022-11-15T11:17:17;8.33;;;3.90;;
13329;SDS011;6734;48.638;8.896;2022-11-15T11:19:47;5.63;;;3.73;;
13329;SDS011;6734;48.638;8.896;2022-11-15T11:22:25;4.93;;;3.70;;
13329;SDS011;6734;48.638;8.896;2022-11-15T11:25:04;4.70;;;4.20;;
13329;SDS011;6734;48.638;8.896;2022-11-15T11:27:41;5.57;;;3.60;;
13329;SDS011;6734;48.638;8.896;2022-11-15T11:30:19;5.17;;;3.67;;
13329;SDS011;6734;48.638;8.896;2022-11-15T11:40:59;7.20;;;3.80;;
13329;SDS011;6734;48.638;8.896;2022-11-15T11:51:24;5.87;;;3.40;;
13329;SDS011;6734;48.638;8.896;2022-11-15T11:54:11;5.23;;;3.13;;
13329;SDS011;6734;48.638;8.896;2022-11-15T11:57:00;8.13;;;3.37;;
13329;SDS011;6734;48.638;8.896;2022-11-15T12:02:15;3.53;;;2.63;;
13329;SDS011;6734;48.638;8.896;2022-11-15T12:04:44;5.53;;;3.27;;
13329;SDS011;6734;48.638;8.896;2022-11-15T12:07:33;3.87;;;2.63;;
13329;SDS011;6734;48.638;8.896;2022-11-15T12:10:22;5.67;;;3.57;;
13329;SDS011;6734;48.638;8.896;2022-11-15T12:15:26;4.47;;;3.40;;
13329;SDS011;6734;48.638;8.896;2022-11-15T12:17:53;5.37;;;3.90;;
13329;SDS011;6734;48.638;8.896;2022-11-15T12:20:26;6.10;;;3.63;;
13329;SDS011;6734;48.638;8.896;2022-11-15T12:23:05;6.20;;;3.97;;
13329;SDS011;6734;48.638;8.896;2022-11-15T12:25:47;4.57;;;3.60;;
13329;SDS011;6734;48.638;8.896;2022-11-15T12:28:19;8.50;;;3.90;;
13329;SDS011;6734;48.638;8.896;2022-11-15T12:31:43;5.53;;;3.77;;
13329;SDS011;6734;48.638;8.896;2022-11-15T12:33:50;4.20;;;3.00;;
13329;SDS011;6734;48.638;8.896;2022-11-15T12:41:29;4.20;;;3.20;;
13329;SDS011;6734;48.638;8.896;2022-11-15T12:43:56;4.27;;;3.50;;
13329;SDS011;6734;48.638;8.896;2022-11-15T12:48:57;6.50;;;3.73;;
13329;SDS011;6734;48.638;8.896;2022-11-15T13:00:36;4.50;;;3.17;;
13329;SDS011;6734;48.638;8.896;2022-11-15T13:02:55;6.23;;;2.93;;
13329;SDS011;6734;48.638;8.896;2022-11-15T13:08:07;9.23;;;3.30;;
13329;SDS011;6734;48.638;8.896;2022-11-15T13:10:33;3.30;;;2.80;;
13329;SDS011;6734;48.638;8.896;2022-11-15T13:13:00;3.97;;;2.93;;
13329;SDS011;6734;48.638;8.896;2022-11-15T13:18:18;3.10;;;2.80;;
13329;SDS011;6734;48.638;8.896;2022-11-15T13:20:44;3.67;;;2.77;;
13329;SDS011;6734;48.638;8.896;2022-11-15T13:23:11;4.10;;;3.00;;
13329;SDS011;6734;48.638;8.896;2022-11-15T13:25:46;5.97;;;3.50;;
13329;SDS011;6734;48.638;8.896;2022-11-15T13:28:25;5.67;;;3.70;;
13329;SDS011;6734;48.638;8.896;2022-11-15T13:30:53;6.27;;;4.57;;
13329;SDS011;6734;48.638;8.896;2022-11-15T13:33:21;6.07;;;3.83;;
13329;SDS011;6734;48.638;8.896;2022-11-15T13:35:50;6.67;;;4.27;;
13329;SDS011;6734;48.638;8.896;2022-11-15T13:40:49;7.40;;;3.90;;
13329;SDS011;6734;48.638;8.896;2022-11-15T13:48:38;5.20;;;4.00;;
13329;SDS011;6734;48.638;8.896;2022-11-15T13:51:05;5.53;;;4.00;;
13329;SDS011;6734;48.638;8.896;2022-11-15T13:53:32;5.10;;;3.90;;
13329;SDS011;6734;48.638;8.896;2022-11-15T13:55:59;5.90;;;4.03;;
13329;SDS011;6734;48.638;8.896;2022-11-15T13:58:25;5.70;;;3.50;;
13329;SDS011;6734;48.638;8.896;2022-11-15T14:00:58;5.47;;;4.00;;
13329;SDS011;6734;48.638;8.896;2022-11-15T14:03:40;4.80;;;4.07;;
13329;SDS011;6734;48.638;8.896;2022-11-15T14:06:11;6.17;;;4.43;;
13329;SDS011;6734;48.638;8.896;2022-11-15T14:08:40;7.90;;;5.40;;
13329;SDS011;6734;48.638;8.896;2022-11-15T14:13:40;6.13;;;5.13;;
13329;SDS011;6734;48.638;8.896;2022-11-15T14:16:16;5.47;;;4.17;;
13329;SDS011;6734;48.638;8.896;2022-11-15T14:18:51;6.23;;;4.17;;
13329;SDS011;6734;48.638;8.896;2022-11-15T14:21:18;6.13;;;4.70;;
13329;SDS011;6734;48.638;8.896;2022-11-15T14:23:44;6.33;;;4.77;;
13329;SDS011;6734;48.638;8.896;2022-11-15T14:28:52;6.03;;;4.40;;
13329;SDS011;6734;48.638;8.896;2022-11-15T14:31:17;5.97;;;4.60;;
13329;SDS011;6734;48.638;8.896;2022-11-15T14:33:45;6.80;;;4.83;;
13329;SDS011;6734;48.638;8.896;2022-11-15T14:36:12;5.13;;;4.03;;
13329;SDS011;6734;48.638;8.896;2022-11-15T14:38:39;6.47;;;4.00;;
13329;SDS011;6734;48.638;8.896;2022-11-15T14:41:11;5.33;;;3.73;;
13329;SDS011;6734;48.638;8.896;2022-11-15T14:43:43;4.90;;;4.10;;
13329;SDS011;6734;48.638;8.896;2022-11-15T14:46:08;8.07;;;4.50;;
13329;SDS011;6734;48.638;8.896;2022-11-15T14:48:34;7.10;;;4.43;;
13329;SDS011;6734;48.638;8.896;2022-11-15T14:50:59;5.97;;;4.57;;
13329;SDS011;6734;48.638;8.896;2022-11-15T14:53:25;9.20;;;5.10;;
13329;SDS011;6734;48.638;8.896;2022-11-15T14:55:51;8.67;;;4.80;;
13329;SDS011;6734;48.638;8.896;2022-11-15T14:58:16;6.73;;;4.80;;
13329;SDS011;6734;48.638;8.896;2022-11-15T15:00:42;7.03;;;4.07;;
13329;SDS011;6734;48.638;8.896;2022-11-15T15:03:08;7.33;;;5.07;;
13329;SDS011;6734;48.638;8.896;2022-11-15T15:05:41;6.03;;;4.60;;
13329;SDS011;6734;48.638;8.896;2022-11-15T15:08:08;6.83;;;5.00;;
13329;SDS011;6734;48.638;8.896;2022-11-15T15:10:35;7.37;;;5.43;;
13329;SDS011;6734;48.638;8.896;2022-11-15T15:13:03;10.93;;;5.53;;
13329;SDS011;6734;48.638;8.896;2022-11-15T15:15:32;8.07;;;5.70;;
13329;SDS011;6734;48.638;8.896;2022-11-15T15:17:59;9.80;;;6.13;;
13329;SDS011;6734;48.638;8.896;2022-11-15T15:20:25;10.83;;;6.60;;
13329;SDS011;6734;48.638;8.896;2022-11-15T15:22:52;8.83;;;6.73;;
13329;SDS011;6734;48.638;8.896;2022-11-15T15:27:47;7.00;;;6.20;;
13329;SDS011;6734;48.638;8.896;2022-11-15T15:30:13;9.07;;;6.23;;
13329;SDS011;6734;48.638;8.896;2022-11-15T15:32:39;9.23;;;6.40;;
13329;SDS011;6734;48.638;8.896;2022-11-15T15:35:05;10.20;;;7.90;;
13329;SDS011;6734;48.638;8.896;2022-11-15T15:37:31;7.97;;;6.07;;
13329;SDS011;6734;48.638;8.896;2022-11-15T15:39:58;10.37;;;6.70;;
13329;SDS011;6734;48.638;8.896;2022-11-15T15:42:24;12.20;;;8.63;;
13329;SDS011;6734;48.638;8.896;2022-11-15T15:44:50;15.83;;;8.87;;
13329;SDS011;6734;48.638;8.896;2022-11-15T15:47:17;22.83;;;12.67;;
13329;SDS011;6734;48.638;8.896;2022-11-15T15:49:44;105.50;;;49.40;;
13329;SDS011;6734;48.638;8.896;2022-11-15T15:52:10;29.17;;;17.50;;
13329;SDS011;6734;48.638;8.896;2022-11-15T15:54:36;18.53;;;12.27;;
13329;SDS011;6734;48.638;8.896;2022-11-15T15:57:02;12.13;;;8.40;;
13329;SDS011;6734;48.638;8.896;2022-11-15T15:59:28;19.83;;;9.23;;
13329;SDS011;6734;48.638;8.896;2022-11-15T16:01:54;17.80;;;9.50;;
13329;SDS011;6734;48.638;8.896;2022-11-15T16:04:20;18.67;;;9.47;;
13329;SDS011;6734;48.638;8.896;2022-11-15T16:06:46;17.53;;;9.73;;
13329;SDS011;6734;48.638;8.896;2022-11-15T16:09:13;15.27;;;9.27;;
13329;SDS011;6734;48.638;8.896;2022-11-15T16:11:40;17.67;;;10.07;;
13329;SDS011;6734;48.638;8.896;2022-11-15T16:14:07;18.10;;;10.30;;
13329;SDS011;6734;48.638;8.896;2022-11-15T16:16:33;16.83;;;11.00;;
13329;SDS011;6734;48.638;8.896;2022-11-15T16:18:59;17.57;;;10.67;;
13329;SDS011;6734;48.638;8.896;2022-11-15T16:21:25;18.50;;;10.53;;
13329;SDS011;6734;48.638;8.896;2022-11-15T16:23:52;14.93;;;10.17;;
13329;SDS011;6734;48.638;8.896;2022-11-15T16:26:25;13.73;;;9.33;;
13329;SDS011;6734;48.638;8.896;2022-11-15T16:28:52;13.87;;;9.57;;
13329;SDS011;6734;48.638;8.896;2022-11-15T16:31:18;14.37;;;9.10;;
13329;SDS011;6734;48.638;8.896;2022-11-15T16:33:46;14.57;;;10.93;;
13329;SDS011;6734;48.638;8.896;2022-11-15T16:36:18;30.63;;;18.20;;
13329;SDS011;6734;48.638;8.896;2022-11-15T16:38:45;51.27;;;28.20;;
13329;SDS011;6734;48.638;8.896;2022-11-15T16:41:11;14.07;;;8.43;;
13329;SDS011;6734;48.638;8.896;2022-11-15T16:43:37;10.07;;;7.00;;
13329;SDS011;6734;48.638;8.896;2022-11-15T16:46:06;9.27;;;7.50;;
13329;SDS011;6734;48.638;8.896;2022-11-15T16:48:32;12.77;;;8.10;;
13329;SDS011;6734;48.638;8.896;2022-11-15T16:50:58;9.23;;;7.37;;
13329;SDS011;6734;48.638;8.896;2022-11-15T16:53:24;8.23;;;6.73;;
13329;SDS011;6734;48.638;8.896;2022-11-15T16:55:51;8.30;;;6.37;;
13329;SDS011;6734;48.638;8.896;2022-11-15T16:58:17;9.83;;;7.10;;
13329;SDS011;6734;48.638;8.896;2022-11-15T17:00:43;10.73;;;6.60;;